sensor_id;sensor_type;location;lat;lon;timestamp;pressure;altitude;pressure_sealevel;temperature;humidity
550;BME280;20066;48.764;9.176;2023-05-21T00:00:28;97812.25;;;18.37;64.71
550;BME280;20066;48.764;9.176;2023-05-21T00:03:03;97812.78;;;18.23;65.33
550;BME280;20066;48.764;9.176;2023-05-21T00:05:31;97808.44;;;17.91;67.19
550;BME280;20066;48.764;9.176;2023-05-21T00:08:01;97808.00;;;17.93;67.38
550;BME280;20066;48.764;9.176;2023-05-21T00:10:29;97803.72;;;17.70;68.46
550;BME280;20066;48.764;9.176;2023-05-21T00:13:00;97804.69;;;17.63;68.80
550;BME280;20066;48.764;9.176;2023-05-21T00:15:30;97803.38;;;17.68;68.43
550;BME280;20066;48.764;9.176;2023-05-21T00:18:01;97803.19;;;17.97;67.51
550;BME280;20066;48.764;9.176;2023-05-21T00:20:32;97797.56;;;17.79;68.52
550;BME280;20066;48.764;9.176;2023-05-21T00:23:01;97796.19;;;17.74;69.03
550;BME280;20066;48.764;9.176;2023-05-21T00:25:38;97792.84;;;17.70;68.72
550;BME280;20066;48.764;9.176;2023-05-21T00:28:11;97793.53;;;17.49;70.16
550;BME280;20066;48.764;9.176;2023-05-21T00:30:40;97785.53;;;18.01;68.33
550;BME280;20066;48.764;9.176;2023-05-21T00:33:08;97792.06;;;18.47;65.95
550;BME280;20066;48.764;9.176;2023-05-21T00:35:40;97777.84;;;17.87;67.64
550;BME280;20066;48.764;9.176;2023-05-21T00:38:10;97782.69;;;17.70;68.69
550;BME280;20066;48.764;9.176;2023-05-21T00:40:42;97777.31;;;17.80;68.68
550;BME280;20066;48.764;9.176;2023-05-21T00:43:14;97779.91;;;17.61;69.68
550;BME280;20066;48.764;9.176;2023-05-21T00:45:44;97776.19;;;17.90;68.71
550;BME280;20066;48.764;9.176;2023-05-21T00:48:16;97768.88;;;18.21;66.98
550;BME280;20066;48.764;9.176;2023-05-21T00:50:44;97772.50;;;17.62;69.49
550;BME280;20066;48.764;9.176;2023-05-21T00:53:13;97772.03;;;17.76;69.02
550;BME280;20066;48.764;9.176;2023-05-21T00:55:46;97773.53;;;17.77;69.43
550;BME280;20066;48.764;9.176;2023-05-21T00:58:17;97767.97;;;17.81;69.59
550;BME280;20066;48.764;9.176;2023-05-21T01:00:45;97769.56;;;17.91;68.86
550;BME280;20066;48.764;9.176;2023-05-21T01:03:14;97766.50;;;17.67;69.33
550;BME280;20066;48.764;9.176;2023-05-21T01:05:42;97771.28;;;17.28;71.38
550;BME280;20066;48.764;9.176;2023-05-21T01:08:13;97772.56;;;17.71;69.78
550;BME280;20066;48.764;9.176;2023-05-21T01:10:44;97765.00;;;17.88;68.94
550;BME280;20066;48.764;9.176;2023-05-21T01:13:14;97765.13;;;17.50;70.00
550;BME280;20066;48.764;9.176;2023-05-21T01:15:45;97766.59;;;17.63;69.77
550;BME280;20066;48.764;9.176;2023-05-21T01:18:20;97766.06;;;17.68;69.90
550;BME280;20066;48.764;9.176;2023-05-21T01:20:53;97758.09;;;17.74;69.78
550;BME280;20066;48.764;9.176;2023-05-21T01:23:37;97758.06;;;18.30;67.22
550;BME280;20066;48.764;9.176;2023-05-21T01:26:26;97756.41;;;18.11;67.43
550;BME280;20066;48.764;9.176;2023-05-21T01:28:55;97761.22;;;17.85;68.58
550;BME280;20066;48.764;9.176;2023-05-21T01:31:27;97756.31;;;18.45;66.80
550;BME280;20066;48.764;9.176;2023-05-21T01:34:02;97756.28;;;18.36;66.48
550;BME280;20066;48.764;9.176;2023-05-21T01:36:39;97754.59;;;17.52;70.23
550;BME280;20066;48.764;9.176;2023-05-21T01:42:32;97752.56;;;17.65;70.72
550;BME280;20066;48.764;9.176;2023-05-21T01:45:05;97756.81;;;18.00;68.29
550;BME280;20066;48.764;9.176;2023-05-21T01:47:36;97750.69;;;17.40;70.40
550;BME280;20066;48.764;9.176;2023-05-21T01:50:08;97755.63;;;17.20;71.53
550;BME280;20066;48.764;9.176;2023-05-21T01:52:47;97755.38;;;17.74;70.65
550;BME280;20066;48.764;9.176;2023-05-21T01:55:19;97749.19;;;18.39;67.35
550;BME280;20066;48.764;9.176;2023-05-21T01:57:53;97747.44;;;17.45;70.09
550;BME280;20066;48.764;9.176;2023-05-21T02:00:24;97751.47;;;18.19;68.14
550;BME280;20066;48.764;9.176;2023-05-21T02:02:56;97745.59;;;17.98;67.89
550;BME280;20066;48.764;9.176;2023-05-21T02:05:25;97736.09;;;18.03;68.36
550;BME280;20066;48.764;9.176;2023-05-21T02:07:53;97742.88;;;18.20;67.03
550;BME280;20066;48.764;9.176;2023-05-21T02:10:21;97747.72;;;18.25;67.38
550;BME280;20066;48.764;9.176;2023-05-21T02:12:49;97744.66;;;18.45;65.82
550;BME280;20066;48.764;9.176;2023-05-21T02:15:19;97746.63;;;17.57;70.24
550;BME280;20066;48.764;9.176;2023-05-21T02:17:47;97744.19;;;18.37;67.15
550;BME280;20066;48.764;9.176;2023-05-21T02:20:17;97743.69;;;17.17;71.11
550;BME280;20066;48.764;9.176;2023-05-21T02:22:48;97746.72;;;17.19;72.09
550;BME280;20066;48.764;9.176;2023-05-21T02:25:19;97740.53;;;18.09;68.81
550;BME280;20066;48.764;9.176;2023-05-21T02:27:47;97745.69;;;18.38;67.13
550;BME280;20066;48.764;9.176;2023-05-21T02:30:20;97740.13;;;18.20;67.38
550;BME280;20066;48.764;9.176;2023-05-21T02:32:49;97740.50;;;18.62;65.49
550;BME280;20066;48.764;9.176;2023-05-21T02:35:16;97737.59;;;18.57;65.79
550;BME280;20066;48.764;9.176;2023-05-21T02:37:49;97738.28;;;17.73;68.65
550;BME280;20066;48.764;9.176;2023-05-21T02:40:41;97738.22;;;17.64;69.59
550;BME280;20066;48.764;9.176;2023-05-21T02:43:09;97734.53;;;18.15;67.76
550;BME280;20066;48.764;9.176;2023-05-21T02:45:40;97732.13;;;18.17;67.52
550;BME280;20066;48.764;9.176;2023-05-21T02:48:08;97727.13;;;18.15;67.84
550;BME280;20066;48.764;9.176;2023-05-21T02:50:37;97735.56;;;18.39;66.58
550;BME280;20066;48.764;9.176;2023-05-21T02:53:06;97732.34;;;18.31;66.42
550;BME280;20066;48.764;9.176;2023-05-21T02:55:35;97730.00;;;17.77;68.00
550;BME280;20066;48.764;9.176;2023-05-21T02:58:04;97737.69;;;17.57;69.34
550;BME280;20066;48.764;9.176;2023-05-21T03:00:31;97729.78;;;17.50;69.76
550;BME280;20066;48.764;9.176;2023-05-21T03:03:01;97725.22;;;17.12;71.85
550;BME280;20066;48.764;9.176;2023-05-21T03:05:30;97728.34;;;17.80;69.49
550;BME280;20066;48.764;9.176;2023-05-21T03:07:58;97723.41;;;18.00;69.07
550;BME280;20066;48.764;9.176;2023-05-21T03:10:27;97724.44;;;18.02;67.15
550;BME280;20066;48.764;9.176;2023-05-21T03:12:56;97715.91;;;17.35;70.32
550;BME280;20066;48.764;9.176;2023-05-21T03:15:31;97713.53;;;17.24;70.93
550;BME280;20066;48.764;9.176;2023-05-21T03:18:05;97717.53;;;17.45;69.95
550;BME280;20066;48.764;9.176;2023-05-21T03:20:33;97720.78;;;17.40;71.07
550;BME280;20066;48.764;9.176;2023-05-21T03:23:06;97718.28;;;17.67;69.74
550;BME280;20066;48.764;9.176;2023-05-21T03:25:42;97714.13;;;17.54;69.67
550;BME280;20066;48.764;9.176;2023-05-21T03:28:12;97719.56;;;17.76;70.08
550;BME280;20066;48.764;9.176;2023-05-21T03:30:40;97714.47;;;17.99;67.89
550;BME280;20066;48.764;9.176;2023-05-21T03:33:13;97720.50;;;17.82;68.42
550;BME280;20066;48.764;9.176;2023-05-21T03:35:42;97721.13;;;17.64;69.12
550;BME280;20066;48.764;9.176;2023-05-21T03:38:10;97709.81;;;17.87;68.20
550;BME280;20066;48.764;9.176;2023-05-21T03:40:39;97708.09;;;17.81;68.43
550;BME280;20066;48.764;9.176;2023-05-21T03:43:07;97713.19;;;18.13;67.57
550;BME280;20066;48.764;9.176;2023-05-21T03:45:35;97714.81;;;17.67;68.27
550;BME280;20066;48.764;9.176;2023-05-21T03:48:04;97703.44;;;17.59;68.57
550;BME280;20066;48.764;9.176;2023-05-21T03:50:34;97716.78;;;17.66;69.71
550;BME280;20066;48.764;9.176;2023-05-21T03:53:03;97716.41;;;18.21;66.77
550;BME280;20066;48.764;9.176;2023-05-21T03:55:31;97716.66;;;17.70;67.89
550;BME280;20066;48.764;9.176;2023-05-21T03:58:01;97727.06;;;18.06;67.38
550;BME280;20066;48.764;9.176;2023-05-21T04:00:30;97724.69;;;18.17;66.66
550;BME280;20066;48.764;9.176;2023-05-21T04:03:12;97736.75;;;17.94;67.01
550;BME280;20066;48.764;9.176;2023-05-21T04:05:44;97733.81;;;18.01;67.08
550;BME280;20066;48.764;9.176;2023-05-21T04:08:14;97734.09;;;18.25;66.33
550;BME280;20066;48.764;9.176;2023-05-21T04:10:48;97736.91;;;18.13;66.07
550;BME280;20066;48.764;9.176;2023-05-21T04:13:16;97739.59;;;18.34;65.94
550;BME280;20066;48.764;9.176;2023-05-21T04:15:44;97735.38;;;18.33;64.99
550;BME280;20066;48.764;9.176;2023-05-21T04:18:12;97738.09;;;18.33;65.07
550;BME280;20066;48.764;9.176;2023-05-21T04:20:43;97738.78;;;18.56;64.26
550;BME280;20066;48.764;9.176;2023-05-21T04:23:15;97747.13;;;17.99;66.21
550;BME280;20066;48.764;9.176;2023-05-21T04:25:43;97752.16;;;17.88;66.34
550;BME280;20066;48.764;9.176;2023-05-21T04:28:16;97753.66;;;17.89;67.65
550;BME280;20066;48.764;9.176;2023-05-21T04:30:48;97754.53;;;17.99;66.73
550;BME280;20066;48.764;9.176;2023-05-21T04:33:19;97753.06;;;18.29;65.59
550;BME280;20066;48.764;9.176;2023-05-21T04:35:50;97764.03;;;18.16;65.60
550;BME280;20066;48.764;9.176;2023-05-21T04:38:26;97762.66;;;18.42;65.43
550;BME280;20066;48.764;9.176;2023-05-21T04:40:54;97764.88;;;18.35;65.19
550;BME280;20066;48.764;9.176;2023-05-21T04:43:24;97763.31;;;18.56;65.05
550;BME280;20066;48.764;9.176;2023-05-21T04:45:52;97769.00;;;18.70;64.50
550;BME280;20066;48.764;9.176;2023-05-21T04:48:21;97770.56;;;18.49;65.51
550;BME280;20066;48.764;9.176;2023-05-21T04:50:51;97774.22;;;18.86;63.97
550;BME280;20066;48.764;9.176;2023-05-21T04:53:21;97759.34;;;18.78;63.53
550;BME280;20066;48.764;9.176;2023-05-21T04:55:52;97774.56;;;18.98;63.51
550;BME280;20066;48.764;9.176;2023-05-21T04:58:20;97774.84;;;18.91;63.94
550;BME280;20066;48.764;9.176;2023-05-21T05:00:49;97779.25;;;18.97;62.76
550;BME280;20066;48.764;9.176;2023-05-21T05:03:20;97771.84;;;18.67;62.75
550;BME280;20066;48.764;9.176;2023-05-21T05:05:49;97772.56;;;18.89;62.72
550;BME280;20066;48.764;9.176;2023-05-21T05:08:19;97769.88;;;18.98;62.73
550;BME280;20066;48.764;9.176;2023-05-21T05:10:49;97773.88;;;19.15;62.26
550;BME280;20066;48.764;9.176;2023-05-21T05:13:17;97774.34;;;19.23;61.72
550;BME280;20066;48.764;9.176;2023-05-21T05:15:47;97771.06;;;18.88;63.07
550;BME280;20066;48.764;9.176;2023-05-21T05:18:20;97767.75;;;18.93;62.50
550;BME280;20066;48.764;9.176;2023-05-21T05:20:48;97762.53;;;19.17;62.02
550;BME280;20066;48.764;9.176;2023-05-21T05:23:18;97763.31;;;19.45;61.17
550;BME280;20066;48.764;9.176;2023-05-21T05:25:46;97774.84;;;19.40;61.32
550;BME280;20066;48.764;9.176;2023-05-21T05:28:15;97771.72;;;19.01;61.84
550;BME280;20066;48.764;9.176;2023-05-21T05:30:43;97769.69;;;19.33;61.68
550;BME280;20066;48.764;9.176;2023-05-21T05:33:12;97761.44;;;19.14;62.04
550;BME280;20066;48.764;9.176;2023-05-21T05:35:41;97760.56;;;19.36;61.56
550;BME280;20066;48.764;9.176;2023-05-21T05:38:09;97761.38;;;19.63;60.35
550;BME280;20066;48.764;9.176;2023-05-21T05:40:44;97768.19;;;19.59;60.47
550;BME280;20066;48.764;9.176;2023-05-21T05:43:13;97764.00;;;19.00;63.18
550;BME280;20066;48.764;9.176;2023-05-21T05:45:41;97767.69;;;19.33;61.45
550;BME280;20066;48.764;9.176;2023-05-21T05:48:10;97765.72;;;19.24;61.93
550;BME280;20066;48.764;9.176;2023-05-21T05:50:38;97775.28;;;18.89;63.12
550;BME280;20066;48.764;9.176;2023-05-21T05:53:09;97776.22;;;19.62;61.11
550;BME280;20066;48.764;9.176;2023-05-21T05:55:47;97783.09;;;19.85;60.41
550;BME280;20066;48.764;9.176;2023-05-21T05:58:17;97779.16;;;19.86;60.34
550;BME280;20066;48.764;9.176;2023-05-21T06:00:49;97783.53;;;20.02;59.44
550;BME280;20066;48.764;9.176;2023-05-21T06:03:18;97774.72;;;19.89;60.13
550;BME280;20066;48.764;9.176;2023-05-21T06:05:46;97780.47;;;19.73;60.39
550;BME280;20066;48.764;9.176;2023-05-21T06:08:18;97781.38;;;20.24;58.53
550;BME280;20066;48.764;9.176;2023-05-21T06:10:49;97776.63;;;20.34;57.81
550;BME280;20066;48.764;9.176;2023-05-21T06:13:17;97776.38;;;20.23;58.68
550;BME280;20066;48.764;9.176;2023-05-21T06:15:48;97777.44;;;19.98;58.65
550;BME280;20066;48.764;9.176;2023-05-21T06:18:18;97781.72;;;19.99;59.94
550;BME280;20066;48.764;9.176;2023-05-21T06:20:47;97775.94;;;19.70;59.58
550;BME280;20066;48.764;9.176;2023-05-21T06:23:16;97774.84;;;20.22;58.78
550;BME280;20066;48.764;9.176;2023-05-21T06:25:47;97781.97;;;20.28;57.96
550;BME280;20066;48.764;9.176;2023-05-21T06:28:17;97769.75;;;19.78;60.40
550;BME280;20066;48.764;9.176;2023-05-21T06:30:45;97773.78;;;20.28;58.46
550;BME280;20066;48.764;9.176;2023-05-21T06:33:13;97778.81;;;20.02;58.65
550;BME280;20066;48.764;9.176;2023-05-21T06:35:42;97777.75;;;19.73;60.55
550;BME280;20066;48.764;9.176;2023-05-21T06:38:14;97778.13;;;19.16;61.97
550;BME280;20066;48.764;9.176;2023-05-21T06:40:42;97770.72;;;20.26;58.95
550;BME280;20066;48.764;9.176;2023-05-21T06:43:14;97776.00;;;20.57;57.66
550;BME280;20066;48.764;9.176;2023-05-21T06:45:45;97771.59;;;20.60;57.67
550;BME280;20066;48.764;9.176;2023-05-21T06:48:14;97769.22;;;21.19;55.88
550;BME280;20066;48.764;9.176;2023-05-21T06:50:43;97766.56;;;20.67;58.00
550;BME280;20066;48.764;9.176;2023-05-21T06:53:11;97778.69;;;20.75;57.20
550;BME280;20066;48.764;9.176;2023-05-21T06:55:43;97781.50;;;21.23;54.94
550;BME280;20066;48.764;9.176;2023-05-21T06:58:11;97778.25;;;21.58;54.60
550;BME280;20066;48.764;9.176;2023-05-21T07:00:42;97773.59;;;21.49;54.46
550;BME280;20066;48.764;9.176;2023-05-21T07:03:09;97776.91;;;21.29;54.71
550;BME280;20066;48.764;9.176;2023-05-21T07:05:38;97784.31;;;21.62;54.48
550;BME280;20066;48.764;9.176;2023-05-21T07:08:08;97778.78;;;21.71;54.26
550;BME280;20066;48.764;9.176;2023-05-21T07:10:37;97778.66;;;20.85;57.23
550;BME280;20066;48.764;9.176;2023-05-21T07:13:10;97782.72;;;21.70;54.30
550;BME280;20066;48.764;9.176;2023-05-21T07:15:39;97784.47;;;21.10;56.14
550;BME280;20066;48.764;9.176;2023-05-21T07:18:10;97784.69;;;20.56;56.24
550;BME280;20066;48.764;9.176;2023-05-21T07:20:39;97784.19;;;20.99;55.38
550;BME280;20066;48.764;9.176;2023-05-21T07:23:08;97780.53;;;21.02;54.30
550;BME280;20066;48.764;9.176;2023-05-21T07:25:39;97788.78;;;20.93;55.30
550;BME280;20066;48.764;9.176;2023-05-21T07:28:08;97794.91;;;21.45;55.36
550;BME280;20066;48.764;9.176;2023-05-21T07:30:37;97793.97;;;20.22;57.35
550;BME280;20066;48.764;9.176;2023-05-21T07:33:06;97783.56;;;18.45;63.39
550;BME280;20066;48.764;9.176;2023-05-21T07:35:45;97777.41;;;19.52;60.06
550;BME280;20066;48.764;9.176;2023-05-21T07:38:14;97779.28;;;20.80;58.14
550;BME280;20066;48.764;9.176;2023-05-21T07:40:48;97790.03;;;20.23;57.25
550;BME280;20066;48.764;9.176;2023-05-21T07:43:17;97785.34;;;20.74;57.23
550;BME280;20066;48.764;9.176;2023-05-21T07:45:46;97784.25;;;20.48;57.01
550;BME280;20066;48.764;9.176;2023-05-21T07:48:15;97780.75;;;20.38;57.22
550;BME280;20066;48.764;9.176;2023-05-21T07:50:50;97772.28;;;20.79;57.99
550;BME280;20066;48.764;9.176;2023-05-21T07:53:21;97777.06;;;20.60;55.91
550;BME280;20066;48.764;9.176;2023-05-21T07:55:54;97789.53;;;20.33;56.77
550;BME280;20066;48.764;9.176;2023-05-21T07:58:23;97780.97;;;20.68;56.26
550;BME280;20066;48.764;9.176;2023-05-21T08:01:08;97778.13;;;21.52;54.31
550;BME280;20066;48.764;9.176;2023-05-21T08:03:38;97773.72;;;21.55;53.51
550;BME280;20066;48.764;9.176;2023-05-21T08:06:09;97769.22;;;22.78;52.53
550;BME280;20066;48.764;9.176;2023-05-21T08:08:43;97773.75;;;23.51;50.01
550;BME280;20066;48.764;9.176;2023-05-21T08:11:13;97771.69;;;22.76;50.21
550;BME280;20066;48.764;9.176;2023-05-21T08:13:43;97765.34;;;23.40;50.27
550;BME280;20066;48.764;9.176;2023-05-21T08:16:11;97768.13;;;24.27;46.49
550;BME280;20066;48.764;9.176;2023-05-21T08:18:43;97774.63;;;22.28;50.87
550;BME280;20066;48.764;9.176;2023-05-21T08:21:15;97768.13;;;23.05;49.85
550;BME280;20066;48.764;9.176;2023-05-21T08:23:46;97770.34;;;23.82;48.58
550;BME280;20066;48.764;9.176;2023-05-21T08:26:15;97767.03;;;23.52;48.97
550;BME280;20066;48.764;9.176;2023-05-21T08:28:43;97773.00;;;23.71;46.75
550;BME280;20066;48.764;9.176;2023-05-21T08:31:16;97774.47;;;24.12;47.19
550;BME280;20066;48.764;9.176;2023-05-21T08:33:49;97780.03;;;24.18;46.96
550;BME280;20066;48.764;9.176;2023-05-21T08:36:23;97769.91;;;22.73;49.43
550;BME280;20066;48.764;9.176;2023-05-21T08:38:53;97771.34;;;21.86;51.66
550;BME280;20066;48.764;9.176;2023-05-21T08:41:22;97779.25;;;23.71;48.20
550;BME280;20066;48.764;9.176;2023-05-21T08:43:54;97776.03;;;23.73;47.25
550;BME280;20066;48.764;9.176;2023-05-21T08:46:24;97780.88;;;24.30;45.46
550;BME280;20066;48.764;9.176;2023-05-21T08:49:02;97773.72;;;21.93;50.12
550;BME280;20066;48.764;9.176;2023-05-21T08:51:34;97773.66;;;23.86;48.22
550;BME280;20066;48.764;9.176;2023-05-21T08:54:04;97769.63;;;23.61;47.43
550;BME280;20066;48.764;9.176;2023-05-21T08:56:39;97773.41;;;23.64;46.95
550;BME280;20066;48.764;9.176;2023-05-21T08:59:14;97772.69;;;22.93;48.00
550;BME280;20066;48.764;9.176;2023-05-21T09:01:49;97769.50;;;22.95;47.92
550;BME280;20066;48.764;9.176;2023-05-21T09:04:18;97770.38;;;21.89;50.39
550;BME280;20066;48.764;9.176;2023-05-21T09:06:51;97776.50;;;22.22;50.06
550;BME280;20066;48.764;9.176;2023-05-21T09:09:26;97770.41;;;23.41;48.02
550;BME280;20066;48.764;9.176;2023-05-21T09:11:58;97780.41;;;23.10;47.72
550;BME280;20066;48.764;9.176;2023-05-21T09:14:32;97785.66;;;24.09;46.41
550;BME280;20066;48.764;9.176;2023-05-21T09:17:04;97783.59;;;22.29;48.68
550;BME280;20066;48.764;9.176;2023-05-21T09:19:33;97780.56;;;23.21;48.39
550;BME280;20066;48.764;9.176;2023-05-21T09:22:04;97785.47;;;21.46;51.66
550;BME280;20066;48.764;9.176;2023-05-21T09:24:33;97777.22;;;21.31;52.71
550;BME280;20066;48.764;9.176;2023-05-21T09:27:06;97786.66;;;23.10;47.74
550;BME280;20066;48.764;9.176;2023-05-21T09:29:35;97784.47;;;22.50;47.70
550;BME280;20066;48.764;9.176;2023-05-21T09:32:08;97788.25;;;23.17;48.59
550;BME280;20066;48.764;9.176;2023-05-21T09:34:38;97776.41;;;22.46;48.73
550;BME280;20066;48.764;9.176;2023-05-21T09:37:08;97783.78;;;22.70;48.11
550;BME280;20066;48.764;9.176;2023-05-21T09:39:53;97784.69;;;23.11;47.74
550;BME280;20066;48.764;9.176;2023-05-21T09:42:21;97794.63;;;24.30;44.37
550;BME280;20066;48.764;9.176;2023-05-21T09:44:51;97788.81;;;22.71;47.76
550;BME280;20066;48.764;9.176;2023-05-21T09:47:21;97777.53;;;22.69;47.93
550;BME280;20066;48.764;9.176;2023-05-21T09:49:49;97779.38;;;23.62;45.52
550;BME280;20066;48.764;9.176;2023-05-21T09:52:25;97790.88;;;24.07;44.37
550;BME280;20066;48.764;9.176;2023-05-21T09:54:55;97787.91;;;23.09;46.56
550;BME280;20066;48.764;9.176;2023-05-21T09:57:25;97786.00;;;24.42;45.00
550;BME280;20066;48.764;9.176;2023-05-21T09:59:54;97784.19;;;22.33;47.57
550;BME280;20066;48.764;9.176;2023-05-21T10:02:24;97786.44;;;23.69;44.28
550;BME280;20066;48.764;9.176;2023-05-21T10:04:54;97791.66;;;23.87;44.45
550;BME280;20066;48.764;9.176;2023-05-21T10:07:32;97795.44;;;23.14;44.76
550;BME280;20066;48.764;9.176;2023-05-21T10:10:03;97791.59;;;23.82;44.54
550;BME280;20066;48.764;9.176;2023-05-21T10:12:35;97797.25;;;23.98;44.27
550;BME280;20066;48.764;9.176;2023-05-21T10:15:08;97788.69;;;22.95;46.27
550;BME280;20066;48.764;9.176;2023-05-21T10:17:40;97793.22;;;23.94;44.73
550;BME280;20066;48.764;9.176;2023-05-21T10:20:10;97791.81;;;24.50;42.89
550;BME280;20066;48.764;9.176;2023-05-21T10:22:48;97790.28;;;23.01;46.46
550;BME280;20066;48.764;9.176;2023-05-21T10:25:19;97790.78;;;24.47;42.55
550;BME280;20066;48.764;9.176;2023-05-21T10:27:49;97778.72;;;22.97;45.55
550;BME280;20066;48.764;9.176;2023-05-21T10:30:21;97795.44;;;24.10;44.23
550;BME280;20066;48.764;9.176;2023-05-21T10:32:54;97784.84;;;25.23;41.47
550;BME280;20066;48.764;9.176;2023-05-21T10:35:26;97788.09;;;24.84;41.79
550;BME280;20066;48.764;9.176;2023-05-21T10:37:57;97781.31;;;25.17;41.78
550;BME280;20066;48.764;9.176;2023-05-21T10:40:33;97781.75;;;24.73;42.09
550;BME280;20066;48.764;9.176;2023-05-21T10:43:29;97775.09;;;25.76;40.77
550;BME280;20066;48.764;9.176;2023-05-21T10:46:17;97778.78;;;26.60;38.79
550;BME280;20066;48.764;9.176;2023-05-21T10:49:14;97778.47;;;25.43;40.92
550;BME280;20066;48.764;9.176;2023-05-21T10:51:53;97770.69;;;24.99;42.04
550;BME280;20066;48.764;9.176;2023-05-21T10:54:47;97774.88;;;24.57;42.45
550;BME280;20066;48.764;9.176;2023-05-21T10:57:39;97768.56;;;24.51;43.32
550;BME280;20066;48.764;9.176;2023-05-21T11:00:15;97765.28;;;25.69;40.21
550;BME280;20066;48.764;9.176;2023-05-21T11:02:44;97766.47;;;24.72;41.33
550;BME280;20066;48.764;9.176;2023-05-21T11:05:15;97763.69;;;26.16;39.32
550;BME280;20066;48.764;9.176;2023-05-21T11:07:50;97768.22;;;27.77;36.12
550;BME280;20066;48.764;9.176;2023-05-21T11:10:36;97762.94;;;27.05;37.89
550;BME280;20066;48.764;9.176;2023-05-21T11:13:07;97769.22;;;27.91;36.98
550;BME280;20066;48.764;9.176;2023-05-21T11:16:05;97769.31;;;24.83;41.77
550;BME280;20066;48.764;9.176;2023-05-21T11:19:00;97776.13;;;24.87;41.73
550;BME280;20066;48.764;9.176;2023-05-21T11:21:33;97774.97;;;26.18;39.20
550;BME280;20066;48.764;9.176;2023-05-21T11:24:05;97769.00;;;26.87;38.06
550;BME280;20066;48.764;9.176;2023-05-21T11:27:00;97769.75;;;26.70;38.29
550;BME280;20066;48.764;9.176;2023-05-21T11:29:41;97770.75;;;26.78;37.24
550;BME280;20066;48.764;9.176;2023-05-21T11:32:12;97766.63;;;25.90;39.65
550;BME280;20066;48.764;9.176;2023-05-21T11:34:59;97759.13;;;25.37;40.42
550;BME280;20066;48.764;9.176;2023-05-21T11:37:31;97761.75;;;26.67;39.21
550;BME280;20066;48.764;9.176;2023-05-21T11:40:23;97755.41;;;26.11;39.61
550;BME280;20066;48.764;9.176;2023-05-21T11:42:58;97761.31;;;25.76;40.20
550;BME280;20066;48.764;9.176;2023-05-21T11:45:28;97753.94;;;26.71;38.16
550;BME280;20066;48.764;9.176;2023-05-21T11:47:58;97754.94;;;26.45;38.64
550;BME280;20066;48.764;9.176;2023-05-21T11:50:27;97757.66;;;27.29;37.48
550;BME280;20066;48.764;9.176;2023-05-21T11:53:04;97761.16;;;27.18;38.01
550;BME280;20066;48.764;9.176;2023-05-21T11:55:39;97761.47;;;26.65;38.44
550;BME280;20066;48.764;9.176;2023-05-21T11:58:17;97758.41;;;27.82;36.71
550;BME280;20066;48.764;9.176;2023-05-21T12:00:49;97754.09;;;26.00;40.20
550;BME280;20066;48.764;9.176;2023-05-21T12:03:18;97763.41;;;27.94;37.20
550;BME280;20066;48.764;9.176;2023-05-21T12:05:53;97761.19;;;27.82;35.86
550;BME280;20066;48.764;9.176;2023-05-21T12:08:24;97753.63;;;27.82;36.31
550;BME280;20066;48.764;9.176;2023-05-21T12:10:55;97767.00;;;28.60;34.90
550;BME280;20066;48.764;9.176;2023-05-21T12:13:28;97759.44;;;26.26;38.74
550;BME280;20066;48.764;9.176;2023-05-21T12:15:57;97761.00;;;26.66;38.94
550;BME280;20066;48.764;9.176;2023-05-21T12:18:26;97756.09;;;25.83;39.36
550;BME280;20066;48.764;9.176;2023-05-21T12:20:56;97755.09;;;25.86;38.70
550;BME280;20066;48.764;9.176;2023-05-21T12:23:25;97751.94;;;26.27;38.50
550;BME280;20066;48.764;9.176;2023-05-21T12:25:53;97759.63;;;27.34;36.92
550;BME280;20066;48.764;9.176;2023-05-21T12:28:21;97755.22;;;26.81;38.43
550;BME280;20066;48.764;9.176;2023-05-21T12:30:52;97754.19;;;26.56;38.35
550;BME280;20066;48.764;9.176;2023-05-21T12:33:20;97756.22;;;26.67;38.48
550;BME280;20066;48.764;9.176;2023-05-21T12:35:58;97753.44;;;27.75;35.96
550;BME280;20066;48.764;9.176;2023-05-21T12:38:30;97753.47;;;26.83;36.80
550;BME280;20066;48.764;9.176;2023-05-21T12:41:04;97746.88;;;25.38;39.97
550;BME280;20066;48.764;9.176;2023-05-21T12:43:36;97752.19;;;26.29;38.24
550;BME280;20066;48.764;9.176;2023-05-21T12:46:09;97749.16;;;26.38;36.95
550;BME280;20066;48.764;9.176;2023-05-21T12:48:40;97753.13;;;27.15;36.38
550;BME280;20066;48.764;9.176;2023-05-21T12:51:15;97754.44;;;26.19;36.71
550;BME280;20066;48.764;9.176;2023-05-21T12:53:59;97755.22;;;25.55;37.92
550;BME280;20066;48.764;9.176;2023-05-21T12:56:42;97759.31;;;27.49;34.78
550;BME280;20066;48.764;9.176;2023-05-21T12:59:14;97762.72;;;28.59;33.47
550;BME280;20066;48.764;9.176;2023-05-21T13:01:47;97758.19;;;25.40;38.55
550;BME280;20066;48.764;9.176;2023-05-21T13:04:18;97759.22;;;26.52;36.68
550;BME280;20066;48.764;9.176;2023-05-21T13:06:53;97757.16;;;27.83;33.88
550;BME280;20066;48.764;9.176;2023-05-21T13:09:22;97768.16;;;28.70;32.22
550;BME280;20066;48.764;9.176;2023-05-21T13:11:54;97754.72;;;26.66;36.20
550;BME280;20066;48.764;9.176;2023-05-21T13:14:23;97752.94;;;26.85;35.32
550;BME280;20066;48.764;9.176;2023-05-21T13:16:54;97751.19;;;26.43;36.59
550;BME280;20066;48.764;9.176;2023-05-21T13:19:22;97752.13;;;24.88;37.26
550;BME280;20066;48.764;9.176;2023-05-21T13:21:54;97752.47;;;26.75;35.14
550;BME280;20066;48.764;9.176;2023-05-21T13:24:26;97754.69;;;26.99;34.08
550;BME280;20066;48.764;9.176;2023-05-21T13:26:54;97758.88;;;29.41;30.96
550;BME280;20066;48.764;9.176;2023-05-21T13:29:24;97756.84;;;29.23;32.17
550;BME280;20066;48.764;9.176;2023-05-21T13:31:54;97749.59;;;29.63;31.27
550;BME280;20066;48.764;9.176;2023-05-21T13:34:23;97753.44;;;26.78;33.73
550;BME280;20066;48.764;9.176;2023-05-21T13:36:52;97746.09;;;28.24;32.66
550;BME280;20066;48.764;9.176;2023-05-21T13:39:20;97753.06;;;29.44;30.59
550;BME280;20066;48.764;9.176;2023-05-21T13:41:52;97753.13;;;27.84;32.37
550;BME280;20066;48.764;9.176;2023-05-21T13:44:22;97756.69;;;28.61;31.46
550;BME280;20066;48.764;9.176;2023-05-21T13:46:54;97751.78;;;29.70;29.73
550;BME280;20066;48.764;9.176;2023-05-21T13:49:25;97753.50;;;29.30;29.32